Time;durP1;ratioP1;P1;durP2;ratioP2;P2;SDS_P1;SDS_P2;PMS_P1;PMS_P2;Temp;Humidity;BMP_temperature;BMP_pressure;BME280_temperature;BME280_humidity;BME280_pressure;Samples;Min_cycle;Max_cycle;Signal;HPM_P1;HPM_P2
2021/12/07 00:01:06;;;;;;;6.97;4.68;;;1.70;99.90;;;;;;5088765;28;20686;-65
2021/12/07 00:03:31;;;;;;;4.77;4.23;;;1.80;99.90;;;;;;5088497;28;20208;-65
2021/12/07 00:05:58;;;;;;;4.40;3.87;;;1.90;99.90;;;;;;5087955;28;20313;-65
2021/12/07 00:08:25;;;;;;;4.57;4.18;;;1.90;99.90;;;;;;5088384;28;20195;-66
2021/12/07 00:10:51;;;;;;;4.43;4.03;;;2.00;99.90;;;;;;5070600;28;20202;-64
2021/12/07 00:13:18;;;;;;;4.47;3.75;;;2.00;99.90;;;;;;5088651;28;20187;-65
2021/12/07 00:15:43;;;;;;;4.97;3.83;;;2.00;99.90;;;;;;5088102;28;20558;-65
2021/12/07 00:18:09;;;;;;;4.53;4.07;;;2.00;99.90;;;;;;5086865;28;20193;-65
2021/12/07 00:20:35;;;;;;;5.23;3.77;;;2.00;99.90;;;;;;5088405;28;20201;-66
2021/12/07 00:23:07;;;;;;;4.10;3.77;;;2.00;99.90;;;;;;5088792;28;20183;-64
2021/12/07 00:25:33;;;;;;;4.25;3.63;;;2.10;99.90;;;;;;5085219;28;20211;-64
2021/12/07 00:27:59;;;;;;;4.57;3.95;;;2.10;99.90;;;;;;5087726;28;20695;-65
2021/12/07 00:30:29;;;;;;;3.30;3.00;;;2.10;99.90;;;;;;5085544;28;20188;-63
2021/12/07 00:33:10;;;;;;;3.55;3.22;;;2.20;99.90;;;;;;5088944;28;20192;-64
2021/12/07 00:35:37;;;;;;;2.97;2.60;;;2.20;99.90;;;;;;5087863;28;20198;-65
2021/12/07 00:38:12;;;;;;;5.28;4.03;;;2.20;99.90;;;;;;5087410;28;20215;-64
2021/12/07 00:40:39;;;;;;;3.83;3.47;;;2.20;99.90;;;;;;5087639;28;20202;-64
2021/12/07 00:43:05;;;;;;;4.50;3.78;;;2.30;99.90;;;;;;5088970;28;20309;-65
2021/12/07 00:45:34;;;;;;;4.32;3.92;;;2.20;99.90;;;;;;5088808;28;20184;-64
2021/12/07 00:48:00;;;;;;;4.63;3.45;;;2.30;99.90;;;;;;5088831;28;20193;-65
2021/12/07 00:50:27;;;;;;;4.13;3.72;;;2.30;99.90;;;;;;5088994;28;20727;-64
2021/12/07 00:52:55;;;;;;;4.85;3.95;;;2.30;99.90;;;;;;5070431;28;20235;-64
2021/12/07 00:55:26;;;;;;;4.95;3.83;;;2.30;99.90;;;;;;5088746;28;20245;-63
2021/12/07 00:57:54;;;;;;;4.80;4.28;;;2.30;99.90;;;;;;5078947;28;20196;-66
2021/12/07 01:00:21;;;;;;;5.93;5.00;;;2.20;99.90;;;;;;5085854;28;20186;-66
2021/12/07 01:02:47;;;;;;;3.85;3.55;;;2.20;99.90;;;;;;5087179;28;20215;-66
2021/12/07 01:05:22;;;;;;;5.17;4.50;;;2.10;99.90;;;;;;5068606;28;20191;-65
2021/12/07 01:26:58;;;;;;;8.20;6.45;;;1.60;99.90;;;;;;5081069;28;20279;-63
2021/12/07 01:29:26;;;;;;;9.38;6.70;;;1.50;99.90;;;;;;5086319;28;20181;-64
2021/12/07 01:40:18;;;;;;;7.30;5.32;;;1.40;99.90;;;;;;5088218;28;20187;-63
2021/12/07 01:46:00;;;;;;;6.30;5.20;;;1.40;99.90;;;;;;5085082;28;20727;-63
2021/12/07 01:59:35;;;;;;;4.20;3.80;;;1.80;99.90;;;;;;5083423;28;20207;-63
2021/12/07 02:02:07;;;;;;;3.90;3.53;;;1.80;99.90;;;;;;5087157;28;20768;-64
2021/12/07 02:04:32;;;;;;;4.53;4.10;;;1.90;99.90;;;;;;5087562;28;20300;-65
2021/12/07 02:06:58;;;;;;;4.30;3.90;;;2.00;99.90;;;;;;5085181;28;20298;-64
2021/12/07 02:09:25;;;;;;;3.40;3.10;;;2.00;99.90;;;;;;5085302;28;21027;-63
2021/12/07 02:11:58;;;;;;;1.92;1.83;;;2.10;99.90;;;;;;5085992;28;20545;-63
2021/12/07 02:14:24;;;;;;;2.05;1.95;;;2.20;99.90;;;;;;5087538;28;20169;-64
2021/12/07 02:16:53;;;;;;;5.10;1.60;;;2.20;99.90;;;;;;5087551;28;20241;-64
2021/12/07 02:19:19;;;;;;;1.95;1.75;;;2.30;99.90;;;;;;5085925;28;20422;-63
2021/12/07 02:21:45;;;;;;;1.23;1.13;;;2.30;99.90;;;;;;5087472;28;20243;-65
2021/12/07 02:24:11;;;;;;;1.20;1.10;;;2.30;99.90;;;;;;5087295;28;20258;-65
2021/12/07 02:26:37;;;;;;;1.00;1.00;;;2.30;99.90;;;;;;5087225;28;20213;-66
2021/12/07 02:29:04;;;;;;;1.10;1.00;;;2.30;99.90;;;;;;5086987;28;20599;-66
2021/12/07 02:31:31;;;;;;;1.00;1.00;;;2.30;99.90;;;;;;5087164;28;20440;-64
2021/12/07 02:33:56;;;;;;;1.45;0.93;;;2.40;99.90;;;;;;5086811;28;20188;-65
2021/12/07 02:36:23;;;;;;;1.00;1.00;;;2.40;99.90;;;;;;5087072;28;20546;-63
2021/12/07 02:38:49;;;;;;;1.13;1.02;;;2.40;99.90;;;;;;5087017;28;20452;-64
2021/12/07 02:41:16;;;;;;;0.85;0.82;;;2.40;99.90;;;;;;5087240;28;20468;-65
2021/12/07 02:43:42;;;;;;;2.15;1.25;;;2.50;99.90;;;;;;5087234;28;20557;-65
2021/12/07 02:46:07;;;;;;;0.90;0.90;;;2.50;99.90;;;;;;5068972;28;20223;-64
2021/12/07 02:48:33;;;;;;;1.10;1.00;;;2.50;99.90;;;;;;5089667;28;20839;-65
2021/12/07 02:51:00;;;;;;;0.80;0.80;;;2.50;99.90;;;;;;5090658;28;20226;-64
2021/12/07 02:53:28;;;;;;;0.70;0.70;;;2.60;99.90;;;;;;5090652;28;20426;-65
2021/12/07 02:55:56;;;;;;;0.82;0.82;;;2.60;99.90;;;;;;5089078;28;20200;-65
2021/12/07 02:58:22;;;;;;;0.80;0.80;;;2.70;99.90;;;;;;5090652;28;20196;-65
2021/12/07 03:00:59;;;;;;;1.20;0.77;;;2.70;99.90;;;;;;5090637;28;20265;-64
2021/12/07 03:03:26;;;;;;;0.80;0.60;;;2.70;99.90;;;;;;5090421;28;20211;-65
2021/12/07 03:06:09;;;;;;;1.35;1.02;;;2.70;99.90;;;;;;5088661;28;20447;-63
2021/12/07 03:27:55;;;;;;;0.70;0.60;;;2.80;99.90;;;;;;5086888;28;20226;-63
2021/12/07 03:30:22;;;;;;;2.20;1.03;;;2.80;99.90;;;;;;5090714;28;20852;-63
2021/12/07 03:32:48;;;;;;;1.73;1.13;;;2.90;99.90;;;;;;5089123;28;20483;-65
2021/12/07 03:35:15;;;;;;;0.82;0.82;;;2.80;99.90;;;;;;5090843;28;20865;-65
2021/12/07 03:37:41;;;;;;;0.80;0.70;;;2.80;99.90;;;;;;5089981;28;20611;-64
2021/12/07 03:40:08;;;;;;;1.20;0.90;;;2.80;99.90;;;;;;5088596;28;20193;-64
2021/12/07 03:42:34;;;;;;;1.80;1.50;;;2.80;99.90;;;;;;5089159;28;20499;-65
2021/12/07 03:45:00;;;;;;;1.20;1.10;;;2.70;99.90;;;;;;5090557;28;20275;-64
2021/12/07 03:47:26;;;;;;;1.43;1.00;;;2.80;99.90;;;;;;5089123;28;20445;-65
2021/12/07 03:49:51;;;;;;;1.00;0.87;;;2.80;99.90;;;;;;5088635;28;20196;-64
2021/12/07 03:52:17;;;;;;;1.47;1.13;;;2.70;99.90;;;;;;5089103;28;20197;-65
2021/12/07 03:54:42;;;;;;;1.83;1.37;;;2.70;99.90;;;;;;5089169;28;20635;-67
2021/12/07 03:57:08;;;;;;;1.20;1.10;;;2.70;99.90;;;;;;5087747;28;20199;-67
2021/12/07 03:59:34;;;;;;;0.77;0.77;;;2.70;99.90;;;;;;5089254;28;20220;-64
2021/12/07 04:02:01;;;;;;;0.77;0.70;;;2.60;99.90;;;;;;5071560;28;20475;-63
2021/12/07 04:04:27;;;;;;;0.85;0.80;;;2.70;99.90;;;;;;5090193;28;20211;-65
2021/12/07 04:06:53;;;;;;;0.90;0.90;;;2.70;99.90;;;;;;5089104;28;20228;-63
2021/12/07 04:09:19;;;;;;;1.00;1.00;;;2.60;99.90;;;;;;5088784;28;20202;-66
2021/12/07 04:11:44;;;;;;;1.00;0.70;;;2.70;99.90;;;;;;5088648;28;20180;-65
2021/12/07 04:14:10;;;;;;;1.20;0.70;;;2.70;99.90;;;;;;5089492;28;20642;-63
2021/12/07 04:16:36;;;;;;;0.90;0.60;;;2.70;99.90;;;;;;5089637;28;20199;-63
2021/12/07 04:19:02;;;;;;;0.80;0.80;;;2.70;99.90;;;;;;5087875;28;20184;-65
2021/12/07 04:21:28;;;;;;;0.60;0.55;;;2.80;99.90;;;;;;5088770;28;20248;-65
2021/12/07 04:23:54;;;;;;;1.10;0.87;;;2.80;99.90;;;;;;5087409;28;20196;-64
2021/12/07 04:26:19;;;;;;;0.90;0.60;;;2.80;99.90;;;;;;5087465;28;20182;-65
2021/12/07 04:28:45;;;;;;;0.60;0.60;;;2.80;99.90;;;;;;5086322;28;20185;-65
2021/12/07 04:31:12;;;;;;;0.85;0.70;;;2.80;99.90;;;;;;5088459;28;20184;-66
2021/12/07 04:33:38;;;;;;;0.80;0.80;;;2.80;99.90;;;;;;5088734;28;20245;-65
2021/12/07 04:36:08;;;;;;;0.70;0.60;;;2.80;99.90;;;;;;5088227;28;20177;-67
2021/12/07 04:38:33;;;;;;;1.47;0.60;;;2.80;99.90;;;;;;5086126;28;20741;-66
2021/12/07 04:40:59;;;;;;;1.27;0.70;;;2.80;99.90;;;;;;5087520;28;20466;-67
2021/12/07 04:43:25;;;;;;;0.67;0.60;;;2.80;99.90;;;;;;5087527;28;20183;-64
2021/12/07 04:59:11;;;;;;;0.63;0.60;;;2.90;99.90;;;;;;5083403;28;20198;-66
2021/12/07 05:01:37;;;;;;;0.83;0.63;;;2.90;99.90;;;;;;5086828;28;20211;-67
2021/12/07 05:04:10;;;;;;;1.10;0.65;;;3.00;99.90;;;;;;5085441;28;20435;-66
2021/12/07 05:06:41;;;;;;;1.67;0.90;;;2.90;99.90;;;;;;5081607;28;20282;-67
2021/12/07 05:12:19;;;;;;;1.23;0.80;;;3.00;99.90;;;;;;5092812;28;20206;-67
2021/12/07 05:14:44;;;;;;;1.27;0.80;;;3.00;99.90;;;;;;5082776;28;20608;-68
2021/12/07 05:38:45;;;;;;;2.17;0.75;;;3.20;99.90;;;;;;5082525;28;20209;-67
2021/12/07 05:41:10;;;;;;;3.08;0.80;;;3.20;99.90;;;;;;5085456;28;20934;-66
2021/12/07 05:43:36;;;;;;;1.03;0.73;;;3.20;99.90;;;;;;5085084;28;20191;-67
2021/12/07 05:46:03;;;;;;;0.97;0.80;;;3.30;99.90;;;;;;5084829;28;20190;-68
2021/12/07 05:48:29;;;;;;;2.72;0.98;;;3.30;99.90;;;;;;5081251;28;20192;-67
2021/12/07 05:50:55;;;;;;;1.83;0.80;;;3.10;99.90;;;;;;5083534;28;20194;-68
2021/12/07 05:53:20;;;;;;;1.17;0.57;;;3.10;99.90;;;;;;5084556;28;20220;-68
2021/12/07 05:55:46;;;;;;;1.13;0.80;;;3.00;99.90;;;;;;5085218;28;21159;-68
2021/12/07 05:58:12;;;;;;;0.73;0.67;;;2.90;99.90;;;;;;5083870;28;20192;-67
2021/12/07 06:00:42;;;;;;;2.00;1.17;;;2.80;99.90;;;;;;5083420;28;20204;-67
2021/12/07 06:03:09;;;;;;;1.58;1.20;;;2.80;99.90;;;;;;5084996;28;20231;-67
2021/12/07 06:05:37;;;;;;;1.92;0.95;;;2.70;99.90;;;;;;5083207;28;20223;-67
2021/12/07 06:08:03;;;;;;;2.05;0.88;;;2.70;99.90;;;;;;5084916;28;20201;-67
2021/12/07 06:10:30;;;;;;;2.38;1.65;;;2.80;99.90;;;;;;5085216;28;20185;-68
2021/12/07 06:12:55;;;;;;;1.90;1.30;;;2.70;99.90;;;;;;5083594;28;20197;-67
2021/12/07 06:15:23;;;;;;;1.80;0.90;;;2.70;99.90;;;;;;5085145;28;20529;-67
2021/12/07 06:17:52;;;;;;;2.72;1.70;;;2.70;99.90;;;;;;5084778;28;20195;-66
2021/12/07 06:20:19;;;;;;;1.75;1.10;;;2.60;99.90;;;;;;5084711;28;20199;-66
2021/12/07 06:22:45;;;;;;;1.70;0.80;;;2.60;99.90;;;;;;5086256;28;20214;-67
2021/12/07 06:25:11;;;;;;;1.30;1.20;;;2.60;99.90;;;;;;5087825;28;20198;-67
2021/12/07 06:27:41;;;;;;;1.48;1.20;;;2.50;99.90;;;;;;5088696;28;20191;-67
2021/12/07 06:30:08;;;;;;;2.47;1.23;;;2.50;99.90;;;;;;5089158;28;20197;-67
2021/12/07 06:32:34;;;;;;;2.78;1.30;;;2.40;99.90;;;;;;5087296;28;20672;-67
2021/12/07 06:35:00;;;;;;;2.70;1.27;;;2.40;99.90;;;;;;5087258;28;20356;-65
2021/12/07 06:37:26;;;;;;;1.00;0.90;;;2.30;99.90;;;;;;5088420;28;21198;-66
2021/12/07 06:39:52;;;;;;;1.53;0.90;;;2.30;99.90;;;;;;5089238;28;20190;-67
2021/12/07 06:42:18;;;;;;;2.50;1.07;;;2.30;99.90;;;;;;5084626;28;20579;-67
2021/12/07 06:44:43;;;;;;;5.40;1.47;;;2.30;99.90;;;;;;5087147;28;20184;-67
2021/12/07 06:47:09;;;;;;;4.20;1.30;;;2.30;99.90;;;;;;5086516;28;20442;-67
2021/12/07 06:49:35;;;;;;;2.13;1.20;;;2.20;99.90;;;;;;5088529;28;20190;-66
2021/12/07 06:52:02;;;;;;;1.00;0.73;;;2.10;99.90;;;;;;5086701;28;20431;-66
2021/12/07 06:54:28;;;;;;;1.27;0.93;;;2.20;99.90;;;;;;5086391;28;20188;-67
2021/12/07 06:56:54;;;;;;;0.80;0.70;;;2.20;99.90;;;;;;5087839;28;20194;-67
2021/12/07 06:59:20;;;;;;;8.23;1.37;;;2.20;99.90;;;;;;5087611;28;20924;-67
2021/12/07 07:01:46;;;;;;;0.90;0.83;;;2.20;99.90;;;;;;5086268;28;20499;-68
2021/12/07 07:04:14;;;;;;;1.27;1.17;;;2.10;99.90;;;;;;5085752;28;20435;-67
2021/12/07 07:06:40;;;;;;;1.95;0.80;;;2.00;99.90;;;;;;5087072;28;20231;-67
2021/12/07 07:09:06;;;;;;;1.10;1.00;;;2.00;99.90;;;;;;5087200;28;20195;-67
2021/12/07 07:11:32;;;;;;;1.73;1.30;;;2.00;99.90;;;;;;5087557;28;20306;-67
2021/12/07 07:13:58;;;;;;;2.80;1.03;;;2.00;99.90;;;;;;5087427;28;20217;-67
2021/12/07 07:16:24;;;;;;;0.70;0.70;;;2.00;99.90;;;;;;5086796;28;20294;-66
2021/12/07 07:18:50;;;;;;;1.07;0.97;;;2.00;99.90;;;;;;5067902;28;20440;-66
2021/12/07 07:21:16;;;;;;;3.23;0.93;;;2.00;99.90;;;;;;5085891;28;20460;-67
2021/12/07 07:23:42;;;;;;;0.63;0.63;;;2.10;99.90;;;;;;5087110;28;20825;-67
2021/12/07 07:26:07;;;;;;;1.00;0.90;;;2.00;99.90;;;;;;5068774;28;20191;-66
2021/12/07 07:28:34;;;;;;;1.43;1.00;;;2.00;99.90;;;;;;5087241;28;20185;-68
2021/12/07 07:31:01;;;;;;;2.47;0.70;;;2.10;99.90;;;;;;5085806;28;20216;-67
2021/12/07 07:33:27;;;;;;;1.65;0.50;;;2.20;99.90;;;;;;5086326;28;20216;-67
2021/12/07 07:35:53;;;;;;;0.70;0.70;;;2.20;99.90;;;;;;5069105;28;20226;-67
2021/12/07 07:38:20;;;;;;;1.57;0.87;;;2.20;99.90;;;;;;5086812;28;20433;-67
2021/12/07 07:40:46;;;;;;;2.25;0.82;;;2.20;99.90;;;;;;5087041;28;20194;-66
2021/12/07 07:43:16;;;;;;;1.08;0.77;;;2.30;99.90;;;;;;5086989;28;20188;-66
2021/12/07 07:45:43;;;;;;;0.77;0.60;;;2.40;99.90;;;;;;5086960;28;20673;-67
2021/12/07 07:48:09;;;;;;;1.58;0.65;;;2.30;99.90;;;;;;5086952;28;20186;-66
2021/12/07 07:50:34;;;;;;;2.17;0.60;;;2.40;99.90;;;;;;5087439;28;20188;-67
2021/12/07 07:53:00;;;;;;;4.87;1.10;;;2.50;99.90;;;;;;5086539;28;20196;-66
2021/12/07 07:55:26;;;;;;;0.97;0.70;;;2.50;99.90;;;;;;5087279;28;20368;-66
2021/12/07 07:57:51;;;;;;;2.30;0.90;;;2.50;99.90;;;;;;5085222;28;20253;-66
2021/12/07 08:00:19;;;;;;;1.10;0.70;;;2.60;99.90;;;;;;5086910;28;20204;-66
2021/12/07 08:02:45;;;;;;;3.75;0.98;;;2.60;99.90;;;;;;5086785;28;20224;-67
2021/12/07 08:05:11;;;;;;;3.83;1.25;;;2.50;99.90;;;;;;5085155;28;20719;-67
2021/12/07 08:07:37;;;;;;;1.95;1.00;;;2.60;99.90;;;;;;5086057;28;20218;-67
2021/12/07 08:10:08;;;;;;;3.50;0.87;;;2.60;99.90;;;;;;5067205;28;20284;-66
2021/12/07 08:12:34;;;;;;;5.35;1.70;;;2.70;99.90;;;;;;5082578;28;20433;-67
2021/12/07 08:15:00;;;;;;;1.80;1.60;;;2.80;99.90;;;;;;5086245;28;20194;-67
2021/12/07 08:17:26;;;;;;;1.53;1.10;;;2.80;99.90;;;;;;5082686;28;20557;-67
2021/12/07 08:19:51;;;;;;;2.60;1.00;;;2.90;99.90;;;;;;5086393;28;20203;-67
2021/12/07 08:22:17;;;;;;;3.77;1.00;;;2.90;99.90;;;;;;5086011;28;20223;-66
2021/12/07 08:24:42;;;;;;;1.40;1.00;;;2.90;99.90;;;;;;5086139;28;20735;-66
2021/12/07 08:27:08;;;;;;;4.83;1.00;;;2.90;99.90;;;;;;5048395;28;20188;-67
2021/12/07 08:29:34;;;;;;;4.10;1.37;;;3.00;99.90;;;;;;5085508;28;20191;-67
2021/12/07 08:31:59;;;;;;;2.33;0.80;;;3.00;99.90;;;;;;5082778;28;20288;-67
2021/12/07 08:34:25;;;;;;;1.83;0.93;;;3.00;99.90;;;;;;5083401;28;20193;-67
2021/12/07 08:36:51;;;;;;;4.00;1.00;;;3.00;99.90;;;;;;5084355;28;20192;-66
2021/12/07 08:39:16;;;;;;;5.63;0.77;;;3.00;99.90;;;;;;5086367;28;20238;-67
2021/12/07 08:41:42;;;;;;;4.40;1.00;;;3.00;99.90;;;;;;5086289;28;20703;-67
2021/12/07 08:44:09;;;;;;;6.93;1.00;;;3.10;99.90;;;;;;5085843;28;20189;-66
2021/12/07 08:46:34;;;;;;;3.88;0.90;;;3.10;99.90;;;;;;5086252;28;20187;-66
2021/12/07 08:49:00;;;;;;;2.93;0.80;;;3.20;99.90;;;;;;5081626;28;20244;-67
2021/12/07 08:51:26;;;;;;;1.67;0.70;;;3.10;99.90;;;;;;5084772;28;20280;-66
2021/12/07 08:54:02;;;;;;;4.07;1.25;;;3.20;99.90;;;;;;5086157;28;20905;-66
2021/12/07 09:01:56;;;;;;;3.28;0.73;;;3.20;99.90;;;;;;5082682;28;20266;-67
2021/12/07 09:04:22;;;;;;;3.20;1.80;;;3.20;99.90;;;;;;5086547;28;20190;-67
2021/12/07 09:06:49;;;;;;;0.85;0.70;;;3.30;99.90;;;;;;5084138;28;20218;-67
2021/12/07 09:09:15;;;;;;;4.28;1.05;;;3.40;99.90;;;;;;5084911;28;20193;-67
2021/12/07 09:11:43;;;;;;;6.07;1.25;;;3.50;99.90;;;;;;5085304;28;20702;-66
2021/12/07 09:14:11;;;;;;;1.30;0.95;;;3.50;99.90;;;;;;5068197;28;20215;-67
2021/12/07 09:16:37;;;;;;;5.60;1.02;;;3.60;99.90;;;;;;5085607;28;20340;-66
2021/12/07 09:19:04;;;;;;;2.58;1.15;;;3.50;99.90;;;;;;5081902;28;20970;-67
2021/12/07 09:21:31;;;;;;;0.90;0.90;;;3.60;99.90;;;;;;5084735;28;20203;-67
2021/12/07 09:23:57;;;;;;;6.30;1.88;;;3.70;99.90;;;;;;5084402;28;20660;-67
2021/12/07 09:26:23;;;;;;;3.47;1.15;;;3.80;99.90;;;;;;5084388;28;20188;-67
2021/12/07 09:28:49;;;;;;;1.85;0.90;;;3.80;99.90;;;;;;5085797;28;20679;-67
2021/12/07 09:31:15;;;;;;;3.70;1.03;;;3.90;99.90;;;;;;5085787;28;20224;-67
2021/12/07 09:33:41;;;;;;;2.72;1.17;;;3.70;99.90;;;;;;5084256;28;20196;-67
2021/12/07 09:36:09;;;;;;;1.97;0.97;;;3.70;99.90;;;;;;5083684;28;20201;-66
2021/12/07 09:38:35;;;;;;;4.30;1.25;;;3.70;99.90;;;;;;5066956;28;20859;-67
2021/12/07 09:41:04;;;;;;;5.65;1.90;;;3.70;99.90;;;;;;5066991;28;20192;-66
2021/12/07 09:43:30;;;;;;;2.53;1.07;;;3.70;99.90;;;;;;5084013;28;20667;-68
2021/12/07 09:45:56;;;;;;;2.67;1.60;;;3.70;99.90;;;;;;5085026;28;20427;-66
2021/12/07 09:48:22;;;;;;;2.80;2.70;;;3.70;99.90;;;;;;5085421;28;20185;-66
2021/12/07 09:50:51;;;;;;;2.50;1.50;;;3.80;99.90;;;;;;5084765;28;20559;-67
2021/12/07 09:53:18;;;;;;;2.13;1.80;;;3.60;99.90;;;;;;5081510;28;20789;-68
2021/12/07 09:55:46;;;;;;;4.30;2.03;;;3.70;99.90;;;;;;5079577;28;20458;-67
2021/12/07 09:58:13;;;;;;;3.40;1.20;;;3.90;99.90;;;;;;5084788;28;20212;-65
2021/12/07 10:00:39;;;;;;;3.20;1.17;;;3.90;99.90;;;;;;5088454;28;20419;-67
2021/12/07 10:03:06;;;;;;;3.23;1.20;;;3.70;99.90;;;;;;5088870;28;20945;-67
2021/12/07 10:05:35;;;;;;;4.13;1.38;;;3.80;99.90;;;;;;5088333;28;20936;-67
2021/12/07 10:08:03;;;;;;;3.75;0.90;;;3.90;99.90;;;;;;5088362;28;20197;-67
2021/12/07 10:10:33;;;;;;;5.97;1.33;;;4.10;99.90;;;;;;5089652;28;20267;-67
2021/12/07 10:13:00;;;;;;;10.27;2.30;;;4.30;99.90;;;;;;5089185;28;20189;-66
2021/12/07 10:15:26;;;;;;;2.65;1.38;;;4.50;99.90;;;;;;5089085;28;20212;-69
2021/12/07 10:18:05;;;;;;;2.40;1.15;;;4.50;99.90;;;;;;5084247;28;20184;-67
2021/12/07 10:20:39;;;;;;;2.55;1.05;;;4.40;99.90;;;;;;5089350;28;20267;-67
2021/12/07 10:23:15;;;;;;;3.28;1.42;;;4.50;99.90;;;;;;5088969;28;20559;-67
2021/12/07 10:25:43;;;;;;;10.25;1.20;;;4.30;99.90;;;;;;5085511;28;20177;-67
2021/12/07 10:28:33;;;;;;;4.03;1.43;;;4.40;99.90;;;;;;5087363;28;20653;-67
2021/12/07 10:31:10;;;;;;;3.73;0.80;;;6.00;99.90;;;;;;5088124;28;20427;-67
2021/12/07 10:33:41;;;;;;;5.33;1.57;;;8.00;99.90;;;;;;5084845;28;20413;-68
2021/12/07 10:36:10;;;;;;;1.37;1.27;;;9.00;99.90;;;;;;5084736;28;20416;-68
2021/12/07 10:38:37;;;;;;;5.53;1.40;;;7.80;98.50;;;;;;5084569;28;20435;-67
2021/12/07 10:41:07;;;;;;;2.67;1.40;;;7.70;99.90;;;;;;5088772;28;20422;-68
2021/12/07 10:43:45;;;;;;;4.43;1.47;;;8.80;99.90;;;;;;5087132;28;20451;-68
2021/12/07 10:46:33;;;;;;;3.33;1.43;;;8.10;99.90;;;;;;5085423;28;21002;-68
2021/12/07 10:49:17;;;;;;;5.27;1.40;;;8.60;99.90;;;;;;5087230;28;20946;-68
2021/12/07 10:52:03;;;;;;;3.23;1.27;;;9.00;99.90;;;;;;5084836;28;20481;-68
2021/12/07 10:54:35;;;;;;;4.03;1.10;;;8.90;99.40;;;;;;5088212;28;20432;-68
2021/12/07 10:57:03;;;;;;;6.03;1.10;;;8.60;99.80;;;;;;5089060;28;20880;-67
2021/12/07 10:59:29;;;;;;;1.30;0.93;;;8.90;99.90;;;;;;5088366;28;20436;-68
2021/12/07 11:01:55;;;;;;;4.23;1.37;;;9.00;99.10;;;;;;5087367;28;20507;-68
2021/12/07 11:04:29;;;;;;;8.53;1.50;;;8.90;99.50;;;;;;5088809;28;20545;-67
2021/12/07 11:07:14;;;;;;;3.83;1.50;;;8.80;97.70;;;;;;5085846;28;20355;-67
2021/12/07 11:09:57;;;;;;;6.33;1.43;;;9.50;99.90;;;;;;5082730;28;20443;-67
2021/12/07 11:12:24;;;;;;;3.80;1.40;;;10.20;95.50;;;;;;5086864;28;20466;-67
2021/12/07 11:14:53;;;;;;;3.63;1.33;;;9.50;96.50;;;;;;5088189;28;20456;-68
2021/12/07 11:17:32;;;;;;;3.57;1.40;;;9.60;99.10;;;;;;5088159;28;20419;-67
2021/12/07 11:19:59;;;;;;;6.80;1.00;;;10.00;96.70;;;;;;5082776;28;21017;-68
2021/12/07 11:22:31;;;;;;;7.10;1.10;;;10.60;95.70;;;;;;5087804;28;21462;-68
2021/12/07 11:24:58;;;;;;;2.93;1.30;;;10.90;93.80;;;;;;5083838;28;20526;-67
2021/12/07 11:30:11;;;;;;;3.10;1.10;;;10.90;92.60;;;;;;5070645;28;20424;-68
2021/12/07 11:32:40;;;;;;;3.93;0.97;;;10.50;96.10;;;;;;5088110;28;20432;-68
2021/12/07 11:35:33;;;;;;;3.27;1.47;;;12.30;93.60;;;;;;5086810;28;20441;-67
2021/12/07 11:38:05;;;;;;;2.73;1.30;;;12.70;89.20;;;;;;5083743;28;20477;-66
2021/12/07 11:40:35;;;;;;;2.33;0.90;;;11.80;90.00;;;;;;5086746;28;20447;-67
2021/12/07 11:43:01;;;;;;;3.03;0.90;;;11.80;90.40;;;;;;5087495;28;20528;-67
2021/12/07 11:45:30;;;;;;;3.40;1.33;;;12.60;90.10;;;;;;5087498;28;21273;-67
2021/12/07 11:47:59;;;;;;;5.67;1.57;;;12.00;90.00;;;;;;5086396;28;20429;-67
2021/12/07 11:50:42;;;;;;;4.77;1.37;;;12.10;90.30;;;;;;5082879;28;20449;-67
2021/12/07 11:53:21;;;;;;;5.30;1.40;;;12.80;89.40;;;;;;5085872;28;20430;-66
2021/12/07 11:55:50;;;;;;;2.57;1.07;;;13.10;86.00;;;;;;5087340;28;20455;-67
2021/12/07 11:58:18;;;;;;;6.10;1.50;;;12.50;83.70;;;;;;5087394;28;20427;-67
2021/12/07 12:00:53;;;;;;;6.27;0.90;;;12.30;89.20;;;;;;5085914;28;20435;-66
2021/12/07 12:03:24;;;;;;;5.00;1.40;;;12.20;88.30;;;;;;5069675;28;20449;-66
2021/12/07 12:05:52;;;;;;;5.17;1.70;;;11.40;85.30;;;;;;5083633;28;20467;-66
2021/12/07 12:08:20;;;;;;;6.90;1.37;;;10.90;90.70;;;;;;5082690;28;20536;-67
2021/12/07 12:11:10;;;;;;;9.77;1.90;;;10.60;90.40;;;;;;5087776;28;20427;-66
2021/12/07 12:13:59;;;;;;;4.50;1.03;;;9.80;91.80;;;;;;5086018;28;20514;-65
2021/12/07 12:16:43;;;;;;;7.63;1.20;;;9.70;93.10;;;;;;5082976;28;20412;-66
2021/12/07 12:19:36;;;;;;;2.03;0.90;;;9.40;92.30;;;;;;5085934;28;20428;-67
2021/12/07 12:22:25;;;;;;;3.37;1.20;;;8.90;94.90;;;;;;5085365;28;20455;-66
2021/12/07 12:24:59;;;;;;;7.23;1.00;;;8.80;96.20;;;;;;5083729;28;20458;-66
2021/12/07 12:27:33;;;;;;;3.87;1.03;;;8.30;95.60;;;;;;5086880;28;20417;-66
2021/12/07 12:30:04;;;;;;;3.63;1.17;;;8.20;96.20;;;;;;5085477;28;20426;-67
2021/12/07 12:32:42;;;;;;;2.47;1.00;;;8.10;97.70;;;;;;5086703;28;20494;-67
2021/12/07 12:35:10;;;;;;;7.33;0.90;;;8.30;98.90;;;;;;5086632;28;20432;-67
2021/12/07 12:37:37;;;;;;;3.77;1.00;;;8.20;95.70;;;;;;5086190;28;20439;-66
2021/12/07 12:40:17;;;;;;;4.20;1.10;;;8.30;96.70;;;;;;5084723;28;20432;-66
2021/12/07 12:42:54;;;;;;;2.40;0.83;;;8.10;96.90;;;;;;5082286;28;20477;-67
2021/12/07 12:45:27;;;;;;;5.17;1.07;;;7.80;96.00;;;;;;5080704;28;20513;-67
2021/12/07 12:48:12;;;;;;;4.60;0.90;;;7.80;97.30;;;;;;5085104;28;20460;-67
2021/12/07 12:50:49;;;;;;;2.80;0.93;;;8.20;97.10;;;;;;5083810;28;20488;-66
2021/12/07 12:53:25;;;;;;;3.67;1.30;;;8.50;95.60;;;;;;5060475;28;20504;-66
2021/12/07 12:56:07;;;;;;;5.07;1.00;;;9.30;95.70;;;;;;5086088;28;20478;-66
2021/12/07 12:58:37;;;;;;;6.07;1.43;;;9.60;93.60;;;;;;5084824;28;20432;-66
2021/12/07 13:01:13;;;;;;;5.50;1.27;;;10.30;91.80;;;;;;5085865;28;20464;-66
2021/12/07 13:03:51;;;;;;;3.53;1.43;;;11.20;90.40;;;;;;5080629;28;20536;-66
2021/12/07 13:06:54;;;;;;;9.83;1.57;;;10.70;86.00;;;;;;5085924;28;20449;-67
2021/12/07 13:09:20;;;;;;;9.13;1.53;;;10.00;90.80;;;;;;5083503;28;20943;-66
2021/12/07 13:11:47;;;;;;;1.17;0.90;;;9.30;91.30;;;;;;5086185;28;20496;-66
2021/12/07 13:14:23;;;;;;;3.40;1.17;;;8.90;92.40;;;;;;5085914;28;20614;-66
2021/12/07 13:17:03;;;;;;;7.13;1.20;;;8.40;94.00;;;;;;5085626;28;20513;-67
2021/12/07 13:19:30;;;;;;;1.90;0.87;;;8.70;93.10;;;;;;5084315;28;20433;-67
2021/12/07 13:22:06;;;;;;;6.27;1.50;;;9.00;91.60;;;;;;5085578;28;20480;-65
2021/12/07 13:24:35;;;;;;;4.90;1.27;;;8.80;92.90;;;;;;5085582;28;20424;-67
2021/12/07 13:27:10;;;;;;;6.00;1.40;;;8.40;93.10;;;;;;5084190;28;20526;-66
2021/12/07 13:29:36;;;;;;;4.00;1.00;;;8.20;94.60;;;;;;5084077;28;20444;-66
2021/12/07 13:32:04;;;;;;;4.40;1.30;;;7.90;94.40;;;;;;5084465;28;20432;-66
2021/12/07 13:34:37;;;;;;;4.00;1.00;;;7.70;94.40;;;;;;5085671;28;20432;-68
2021/12/07 13:37:09;;;;;;;3.40;1.37;;;8.00;94.90;;;;;;5081601;28;21031;-66
2021/12/07 13:39:47;;;;;;;5.03;1.20;;;7.50;92.80;;;;;;5080783;28;20894;-66
2021/12/07 13:42:16;;;;;;;4.90;1.70;;;7.10;95.60;;;;;;5082639;28;20451;-66
2021/12/07 13:45:06;;;;;;;2.53;0.83;;;7.20;97.30;;;;;;5085447;28;20936;-66
2021/12/07 13:47:36;;;;;;;5.50;1.17;;;7.10;96.10;;;;;;5080057;28;20527;-66
2021/12/07 13:50:13;;;;;;;2.40;1.30;;;7.20;97.50;;;;;;5081517;28;20427;-66
2021/12/07 13:52:44;;;;;;;2.80;1.70;;;7.00;97.40;;;;;;5081061;28;20435;-66
2021/12/07 13:55:16;;;;;;;11.20;1.93;;;7.00;98.90;;;;;;5085095;28;20434;-67
2021/12/07 13:57:45;;;;;;;4.70;1.47;;;6.90;98.40;;;;;;5083842;28;20447;-66
2021/12/07 14:00:32;;;;;;;2.33;1.27;;;6.80;98.80;;;;;;5083658;28;20427;-66
2021/12/07 14:03:01;;;;;;;3.83;1.60;;;6.70;97.60;;;;;;5084921;28;20472;-67
2021/12/07 14:05:32;;;;;;;2.40;0.93;;;6.70;99.10;;;;;;5081482;28;20436;-66
2021/12/07 14:08:00;;;;;;;3.13;1.03;;;6.50;99.90;;;;;;5085256;28;20456;-66
2021/12/07 14:10:30;;;;;;;3.77;1.40;;;6.50;99.80;;;;;;5079633;28;20424;-66
2021/12/07 14:12:58;;;;;;;3.23;0.97;;;6.40;99.80;;;;;;5081078;28;20466;-66
2021/12/07 14:15:32;;;;;;;1.60;0.77;;;6.40;99.90;;;;;;5084645;28;20434;-66
2021/12/07 14:18:07;;;;;;;4.90;1.07;;;6.30;98.10;;;;;;5081357;28;20486;-66
2021/12/07 14:20:49;;;;;;;5.17;2.53;;;6.10;98.80;;;;;;5080907;28;20501;-66
2021/12/07 14:23:29;;;;;;;3.93;1.60;;;6.10;99.90;;;;;;5083581;28;20533;-66
2021/12/07 14:26:19;;;;;;;6.97;3.20;;;5.90;99.90;;;;;;5080547;28;20423;-67
2021/12/07 14:28:54;;;;;;;11.80;2.60;;;5.80;99.90;;;;;;5082445;28;20537;-66
2021/12/07 14:31:32;;;;;;;4.80;2.30;;;5.60;99.90;;;;;;5084678;28;20428;-67
2021/12/07 14:34:01;;;;;;;3.37;1.80;;;5.50;99.90;;;;;;5081474;28;20443;-66
2021/12/07 14:36:33;;;;;;;8.43;1.50;;;5.40;99.90;;;;;;5066519;28;21220;-64
2021/12/07 14:39:04;;;;;;;2.70;1.30;;;5.30;99.60;;;;;;5082838;28;20434;-65
2021/12/07 14:41:30;;;;;;;4.57;1.27;;;5.10;99.90;;;;;;5084931;28;20491;-67
2021/12/07 14:43:56;;;;;;;6.43;3.57;;;5.10;99.90;;;;;;5087218;28;20825;-67
2021/12/07 14:46:25;;;;;;;3.97;1.80;;;4.90;99.90;;;;;;5088246;28;20205;-67
2021/12/07 14:48:53;;;;;;;7.80;1.40;;;4.80;99.90;;;;;;5084407;28;21124;-66
2021/12/07 14:51:28;;;;;;;2.97;1.60;;;4.70;99.90;;;;;;5083531;28;20427;-66
2021/12/07 14:54:01;;;;;;;2.67;0.73;;;4.60;99.90;;;;;;5084966;28;20427;-67